Fountain, Michigan
Current Conditions -  °F | °C
As of 5:35 PM on Monday 24 Nov 2014 (Local Time) from KLDM Reporting Station
Light Snow Light Snow  
Wind Chill: 21°   Ceiling: 800
Heat Index: 34°   Visibility: 3mi
Dew Point: 33°   Wind: 26mph
Humidity: 95%   Direction: 240°WSW
Pressure: 29.29"   Gusts: 36mph
Location:  44.05°N, 86.18°W
Report Text: KLDM 242235Z AUTO 24023G31KT 3SM -SN BKN008 OVC013 01/01 A2929 RMK AO2 P0004 T00120005
Loading
Personal Weather Stations






























Interactive Weather Map New forecast layout! Learn more

10-Day Weather Forecast

Advertisements
Track Severe Weather on mobile